Time,TemperatureF,DewpointF,PressureIn,WindDirection,WindDirectionDegrees,WindSpeedMPH,WindSpeedGustMPH,Humidity,HourlyPrecipIn,Conditions,Clouds,dailyrainin,SoftwareType,DateUTC
2013-05-11 00:04:00,63.8,56.0,25.00,ESE,123,0.0,-999.0,76,-99.99,,,0.01,weatherlink.com 1.10,2013-05-11 04:04:00,
2013-05-11 00:19:00,63.6,56.0,25.00,ESE,123,0.0,-999.0,75,-99.99,,,0.01,weatherlink.com 1.10,2013-05-11 04:19:00,
2013-05-11 00:34:00,63.3,55.0,25.00,ESE,123,0.0,-999.0,75,-99.99,,,0.01,weatherlink.com 1.10,2013-05-11 04:34:00,
2013-05-11 00:49:00,62.9,55.0,25.00,SE,124,0.0,-999.0,76,-99.99,,,0.01,weatherlink.com 1.10,2013-05-11 04:49:00,
2013-05-11 01:04:00,62.5,55.0,25.00,ESE,123,0.0,-999.0,77,-99.99,,,0.00,weatherlink.com 1.10,2013-05-11 05:04:00,
2013-05-11 01:19:00,62.5,55.0,25.00,ESE,109,0.0,-999.0,77,-99.99,,,0.00,weatherlink.com 1.10,2013-05-11 05:19:00,
2013-05-11 01:34:00,62.4,55.0,25.00,ESE,116,0.0,-999.0,77,-99.99,,,0.00,weatherlink.com 1.10,2013-05-11 05:34:00,
2013-05-11 01:49:00,62.3,55.0,25.00,SE,127,0.0,-999.0,77,-99.99,,,0.00,weatherlink.com 1.10,2013-05-11 05:49:00,
2013-05-11 02:04:00,62.0,55.0,25.00,SE,127,0.0,-999.0,78,-99.99,,,0.00,weatherlink.com 1.10,2013-05-11 06:04:00,
2013-05-11 02:19:00,61.6,55.0,25.00,SE,126,0.0,-999.0,79,-99.99,,,0.00,weatherlink.com 1.10,2013-05-11 06:19:00,
2013-05-11 02:34:00,61.2,55.0,25.00,SE,127,0.0,-999.0,79,-99.99,,,0.00,weatherlink.com 1.10,2013-05-11 06:34:00,
2013-05-11 02:49:00,60.7,55.0,25.00,SE,126,0.0,-999.0,80,-99.99,,,0.00,weatherlink.com 1.10,2013-05-11 06:49:00,
2013-05-11 03:04:00,60.5,54.0,25.00,SE,126,0.0,-999.0,80,-99.99,,,0.00,weatherlink.com 1.10,2013-05-11 07:04:00,
2013-05-11 03:19:00,60.3,54.0,25.00,SE,127,0.0,-999.0,81,-99.99,,,0.00,weatherlink.com 1.10,2013-05-11 07:19:00,
2013-05-11 03:34:00,59.9,54.0,25.00,SE,125,0.0,-999.0,82,-99.99,,,0.00,weatherlink.com 1.10,2013-05-11 07:34:00,
2013-05-11 03:49:00,59.5,54.0,25.00,SE,125,0.0,-999.0,83,-99.99,,,0.00,weatherlink.com 1.10,2013-05-11 07:49:00,
2013-05-11 04:04:00,59.1,54.0,25.00,SE,125,0.0,-999.0,83,-99.99,,,0.00,weatherlink.com 1.10,2013-05-11 08:04:00,
2013-05-11 04:19:00,59.0,54.0,25.00,SE,125,0.0,-999.0,84,-99.99,,,0.00,weatherlink.com 1.10,2013-05-11 08:19:00,
2013-05-11 04:34:00,58.9,54.0,25.00,SE,125,0.0,-999.0,84,-99.99,,,0.00,weatherlink.com 1.10,2013-05-11 08:34:00,
2013-05-11 04:49:00,58.7,54.0,25.00,ESE,121,0.0,-999.0,85,-99.99,,,0.00,weatherlink.com 1.10,2013-05-11 08:49:00,
2013-05-11 05:04:00,59.0,55.0,25.00,NNE,30,0.0,-999.0,86,-99.99,,,0.00,weatherlink.com 1.10,2013-05-11 09:04:00,
2013-05-11 05:19:00,59.0,55.0,25.00,NNW,337,0.0,-999.0,86,-99.99,,,0.00,weatherlink.com 1.10,2013-05-11 09:19:00,
2013-05-11 05:34:00,59.0,55.0,25.00,NNW,336,0.0,-999.0,86,-99.99,,,0.00,weatherlink.com 1.10,2013-05-11 09:34:00,
2013-05-11 05:49:00,59.0,56.0,25.00,NE,49,0.0,-999.0,88,-99.99,,,0.03,weatherlink.com 1.10,2013-05-11 09:49:00,
2013-05-11 06:04:00,58.4,56.0,25.00,NE,49,0.0,-999.0,90,-99.99,,,0.03,weatherlink.com 1.10,2013-05-11 10:04:00,
2013-05-11 06:19:00,58.3,56.0,25.00,NE,49,0.0,-999.0,91,-99.99,,,0.04,weatherlink.com 1.10,2013-05-11 10:19:00,
2013-05-11 06:34:00,58.3,56.0,25.00,SW,236,0.0,-999.0,92,-99.99,,,0.04,weatherlink.com 1.10,2013-05-11 10:34:00,
2013-05-11 06:49:00,58.4,56.0,25.00,South,175,0.0,-999.0,92,-99.99,,,0.04,weatherlink.com 1.10,2013-05-11 10:49:00,
2013-05-11 07:04:00,58.4,56.0,25.00,East,95,0.0,-999.0,92,-99.99,,,0.04,weatherlink.com 1.10,2013-05-11 11:04:00,
2013-05-11 07:19:00,58.5,57.0,25.00,ESE,105,0.0,-999.0,93,-99.99,,,0.04,weatherlink.com 1.10,2013-05-11 11:19:00,
2013-05-11 07:34:00,58.6,57.0,25.00,ESE,115,0.0,-999.0,93,-99.99,,,0.04,weatherlink.com 1.10,2013-05-11 11:34:00,
2013-05-11 07:49:00,58.8,57.0,25.00,East,88,0.0,-999.0,93,-99.99,,,0.04,weatherlink.com 1.10,2013-05-11 11:49:00,
2013-05-11 08:04:00,59.0,57.0,25.00,East,89,0.0,-999.0,93,-99.99,,,0.04,weatherlink.com 1.10,2013-05-11 12:04:00,
2013-05-11 08:19:00,59.6,58.0,25.00,SSW,209,0.0,-999.0,93,-99.99,,,0.04,weatherlink.com 1.10,2013-05-11 12:19:00,
2013-05-11 08:34:00,59.9,58.0,25.00,ENE,76,0.0,-999.0,93,-99.99,,,0.04,weatherlink.com 1.10,2013-05-11 12:34:00,
2013-05-11 08:49:00,60.4,58.0,25.00,South,176,0.0,-999.0,93,-99.99,,,0.04,weatherlink.com 1.10,2013-05-11 12:49:00,
2013-05-11 09:04:00,61.2,59.0,25.00,South,184,0.0,-999.0,93,-99.99,,,0.04,weatherlink.com 1.10,2013-05-11 13:04:00,
2013-05-11 09:19:00,62.1,60.0,25.00,SSW,209,0.0,-999.0,93,-99.99,,,0.04,weatherlink.com 1.10,2013-05-11 13:19:00,
2013-05-11 09:34:00,62.9,60.0,25.00,SSE,149,0.0,-999.0,91,-99.99,,,0.04,weatherlink.com 1.10,2013-05-11 13:34:00,
2013-05-11 09:49:00,63.5,61.0,25.00,West,261,0.0,-999.0,90,-99.99,,,0.04,weatherlink.com 1.10,2013-05-11 13:49:00,
2013-05-11 10:04:00,64.3,61.0,25.00,WNW,284,0.0,-999.0,88,-99.99,,,0.04,weatherlink.com 1.10,2013-05-11 14:04:00,
2013-05-11 10:19:00,64.7,60.0,25.00,West,281,2.0,-999.0,85,-99.99,,,0.04,weatherlink.com 1.10,2013-05-11 14:19:00,
2013-05-11 10:34:00,64.9,60.0,25.00,West,260,2.0,-999.0,83,-99.99,,,0.04,weatherlink.com 1.10,2013-05-11 14:34:00,
2013-05-11 10:49:00,64.9,59.0,25.00,WNW,295,0.0,-999.0,82,-99.99,,,0.04,weatherlink.com 1.10,2013-05-11 14:49:00,
2013-05-11 11:04:00,65.3,60.0,25.00,WSW,244,0.0,-999.0,82,-99.99,,,0.04,weatherlink.com 1.10,2013-05-11 15:04:00,
2013-05-11 11:19:00,66.3,61.0,25.00,SSW,192,3.0,-999.0,82,-99.99,,,0.04,weatherlink.com 1.10,2013-05-11 15:19:00,
2013-05-11 11:34:00,67.6,61.0,25.00,NW,306,1.0,-999.0,79,-99.99,,,0.04,weatherlink.com 1.10,2013-05-11 15:34:00,
2013-05-11 11:49:00,69.1,62.0,25.00,South,172,4.0,-999.0,77,-99.99,,,0.04,weatherlink.com 1.10,2013-05-11 15:49:00,
2013-05-11 12:04:00,69.5,62.0,25.00,WNW,300,0.0,-999.0,76,-99.99,,,0.04,weatherlink.com 1.10,2013-05-11 16:04:00,
2013-05-11 12:19:00,68.5,61.0,25.00,East,80,1.0,-999.0,77,-99.99,,,0.04,weatherlink.com 1.10,2013-05-11 16:19:00,
2013-05-11 12:34:00,68.9,62.0,25.00,ENE,60,0.0,-999.0,79,-99.99,,,0.04,weatherlink.com 1.10,2013-05-11 16:34:00,
2013-05-11 12:49:00,69.3,62.0,25.00,SW,219,0.0,-999.0,78,-99.99,,,0.04,weatherlink.com 1.10,2013-05-11 16:49:00,
2013-05-11 13:04:00,70.0,63.0,25.00,NNW,336,0.0,-999.0,77,-99.99,,,0.04,weatherlink.com 1.10,2013-05-11 17:04:00,
2013-05-11 13:19:00,70.5,62.0,25.00,SE,132,0.0,-999.0,74,-99.99,,,0.04,weatherlink.com 1.10,2013-05-11 17:19:00,
2013-05-11 13:34:00,70.1,61.0,25.00,SE,131,0.0,-999.0,74,-99.99,,,0.04,weatherlink.com 1.10,2013-05-11 17:34:00,
2013-05-11 13:49:00,69.1,62.0,25.00,SSE,162,0.0,-999.0,78,-99.99,,,0.04,weatherlink.com 1.10,2013-05-11 17:49:00,
2013-05-11 14:04:00,68.5,61.0,25.00,SSW,202,0.0,-999.0,78,-99.99,,,0.04,weatherlink.com 1.10,2013-05-11 18:04:00,
2013-05-11 14:19:00,68.1,61.0,25.00,WSW,253,2.0,-999.0,78,-99.99,,,0.04,weatherlink.com 1.10,2013-05-11 18:19:00,
2013-05-11 14:34:00,67.6,61.0,25.00,NNE,25,0.0,-999.0,79,-99.99,,,0.04,weatherlink.com 1.10,2013-05-11 18:34:00,
2013-05-11 14:49:00,67.3,61.0,25.00,WSW,241,3.0,-999.0,79,-99.99,,,0.04,weatherlink.com 1.10,2013-05-11 18:49:00,
2013-05-11 15:04:00,67.3,61.0,25.00,NNW,340,2.0,-999.0,79,-99.99,,,0.04,weatherlink.com 1.10,2013-05-11 19:04:00,
2013-05-11 15:19:00,67.2,60.0,25.00,SSW,213,3.0,-999.0,78,-99.99,,,0.04,weatherlink.com 1.10,2013-05-11 19:19:00,
2013-05-11 15:34:00,66.8,60.0,25.00,WSW,249,6.0,-999.0,79,-99.99,,,0.04,weatherlink.com 1.10,2013-05-11 19:34:00,
2013-05-11 15:49:00,66.1,59.0,25.00,West,279,3.0,-999.0,79,-99.99,,,0.04,weatherlink.com 1.10,2013-05-11 19:49:00,
2013-05-11 16:04:00,66.2,60.0,25.00,ESE,120,0.0,-999.0,80,-99.99,,,0.04,weatherlink.com 1.10,2013-05-11 20:04:00,
2013-05-11 16:19:00,66.4,60.0,25.00,WSW,240,0.0,-999.0,79,-99.99,,,0.04,weatherlink.com 1.10,2013-05-11 20:19:00,
2013-05-11 16:34:00,66.0,60.0,25.00,SW,233,0.0,-999.0,80,-99.99,,,0.04,weatherlink.com 1.10,2013-05-11 20:34:00,
2013-05-11 16:49:00,65.8,60.0,25.00,SE,145,0.0,-999.0,81,-99.99,,,0.04,weatherlink.com 1.10,2013-05-11 20:49:00,
2013-05-11 17:04:00,66.0,60.0,25.00,West,275,0.0,-999.0,82,-99.99,,,0.04,weatherlink.com 1.10,2013-05-11 21:04:00,
2013-05-11 17:19:00,65.7,60.0,25.00,SE,126,0.0,-999.0,83,-99.99,,,0.04,weatherlink.com 1.10,2013-05-11 21:19:00,
2013-05-11 17:34:00,65.4,61.0,25.00,SSE,153,0.0,-999.0,84,-99.99,,,0.04,weatherlink.com 1.10,2013-05-11 21:34:00,
2013-05-11 17:49:00,65.4,60.0,25.00,SSW,213,0.0,-999.0,83,-99.99,,,0.04,weatherlink.com 1.10,2013-05-11 21:49:00,
2013-05-11 18:04:00,65.4,61.0,25.00,WSW,238,5.0,-999.0,84,-99.99,,,0.04,weatherlink.com 1.10,2013-05-11 22:04:00,
2013-05-11 18:19:00,65.2,60.0,25.00,NW,321,0.0,-999.0,84,-99.99,,,0.04,weatherlink.com 1.10,2013-05-11 22:19:00,
2013-05-11 18:34:00,64.6,61.0,25.00,South,169,0.0,-999.0,87,-99.99,,,0.06,weatherlink.com 1.10,2013-05-11 22:34:00,
2013-05-11 18:49:00,64.0,61.0,25.00,WSW,244,0.0,-999.0,90,-99.99,,,0.08,weatherlink.com 1.10,2013-05-11 22:49:00,
2013-05-11 19:04:00,63.8,61.0,25.00,WNW,301,0.0,-999.0,91,-99.99,,,0.08,weatherlink.com 1.10,2013-05-11 23:04:00,
2013-05-11 19:19:00,63.6,61.0,25.00,NW,304,0.0,-999.0,92,-99.99,,,0.08,weatherlink.com 1.10,2013-05-11 23:19:00,
2013-05-11 19:34:00,63.3,61.0,25.00,ESE,105,0.0,-999.0,92,-99.99,,,0.09,weatherlink.com 1.10,2013-05-11 23:34:00,
2013-05-11 19:49:00,63.1,61.0,25.00,SSW,206,0.0,-999.0,92,-99.99,,,0.09,weatherlink.com 1.10,2013-05-11 23:49:00,
2013-05-11 20:04:00,62.7,60.0,25.00,SW,232,0.0,-999.0,92,-99.99,,,0.09,weatherlink.com 1.10,2013-05-12 00:04:00,
2013-05-11 20:19:00,62.5,60.0,25.00,SW,232,0.0,-999.0,92,-99.99,,,0.09,weatherlink.com 1.10,2013-05-12 00:19:00,
2013-05-11 20:34:00,62.3,60.0,25.00,SW,232,0.0,-999.0,93,-99.99,,,0.09,weatherlink.com 1.10,2013-05-12 00:34:00,
2013-05-11 20:49:00,62.2,60.0,25.00,SW,232,0.0,-999.0,93,-99.99,,,0.09,weatherlink.com 1.10,2013-05-12 00:49:00,
2013-05-11 21:04:00,62.1,60.0,25.00,SW,231,0.0,-999.0,93,-99.99,,,0.09,weatherlink.com 1.10,2013-05-12 01:04:00,
2013-05-11 21:19:00,62.0,60.0,25.00,SW,229,0.0,-999.0,93,-99.99,,,0.09,weatherlink.com 1.10,2013-05-12 01:19:00,
2013-05-11 21:34:00,61.7,60.0,25.00,SW,229,0.0,-999.0,93,-99.99,,,0.09,weatherlink.com 1.10,2013-05-12 01:34:00,
2013-05-11 21:49:00,61.7,60.0,25.00,SW,229,0.0,-999.0,93,-99.99,,,0.09,weatherlink.com 1.10,2013-05-12 01:49:00,
2013-05-11 22:04:00,61.8,60.0,25.00,SW,229,0.0,-999.0,93,-99.99,,,0.09,weatherlink.com 1.10,2013-05-12 02:04:00,
2013-05-11 22:19:00,61.7,60.0,25.00,SW,229,0.0,-999.0,93,-99.99,,,0.09,weatherlink.com 1.10,2013-05-12 02:19:00,
2013-05-11 22:34:00,61.7,60.0,25.00,SW,229,0.0,-999.0,94,-99.99,,,0.09,weatherlink.com 1.10,2013-05-12 02:34:00,
2013-05-11 22:49:00,61.7,60.0,25.00,SW,229,0.0,-999.0,94,-99.99,,,0.09,weatherlink.com 1.10,2013-05-12 02:49:00,
2013-05-11 23:04:00,61.6,60.0,25.00,SW,229,0.0,-999.0,94,-99.99,,,0.09,weatherlink.com 1.10,2013-05-12 03:04:00,
2013-05-11 23:19:00,61.6,60.0,25.00,SW,229,0.0,-999.0,94,-99.99,,,0.09,weatherlink.com 1.10,2013-05-12 03:19:00,
2013-05-11 23:34:00,61.5,60.0,25.00,SW,229,0.0,-999.0,94,-99.99,,,0.09,weatherlink.com 1.10,2013-05-12 03:34:00,
2013-05-11 23:49:00,61.4,60.0,25.00,SW,229,0.0,-999.0,94,-99.99,,,0.09,weatherlink.com 1.10,2013-05-12 03:49:00,